sensor_id;sensor_type;location;lat;lon;timestamp;P1;durP1;ratioP1;P2;durP2;ratioP2
39410;SDS011;26579;43.238;23.124;2022-10-16T00:01:26;9.38;;;5.20;;
39410;SDS011;26579;43.238;23.124;2022-10-16T00:03:54;11.65;;;5.55;;
39410;SDS011;26579;43.238;23.124;2022-10-16T00:06:20;12.57;;;5.15;;
39410;SDS011;26579;43.238;23.124;2022-10-16T00:08:47;9.70;;;4.47;;
39410;SDS011;26579;43.238;23.124;2022-10-16T00:11:15;13.13;;;6.15;;
39410;SDS011;26579;43.238;23.124;2022-10-16T00:13:47;10.88;;;4.97;;
39410;SDS011;26579;43.238;23.124;2022-10-16T00:16:14;8.23;;;4.95;;
39410;SDS011;26579;43.238;23.124;2022-10-16T00:18:40;17.77;;;4.78;;
39410;SDS011;26579;43.238;23.124;2022-10-16T00:21:12;8.30;;;5.13;;
39410;SDS011;26579;43.238;23.124;2022-10-16T00:24:00;16.05;;;4.90;;
39410;SDS011;26579;43.238;23.124;2022-10-16T00:26:29;9.57;;;4.57;;
39410;SDS011;26579;43.238;23.124;2022-10-16T00:28:56;9.30;;;4.55;;
39410;SDS011;26579;43.238;23.124;2022-10-16T00:31:22;12.30;;;5.03;;
39410;SDS011;26579;43.238;23.124;2022-10-16T00:33:48;11.45;;;4.32;;
39410;SDS011;26579;43.238;23.124;2022-10-16T00:36:17;10.98;;;3.95;;
39410;SDS011;26579;43.238;23.124;2022-10-16T00:38:44;10.75;;;4.55;;
39410;SDS011;26579;43.238;23.124;2022-10-16T00:41:11;8.93;;;4.95;;
39410;SDS011;26579;43.238;23.124;2022-10-16T00:43:44;10.55;;;4.03;;
39410;SDS011;26579;43.238;23.124;2022-10-16T00:46:22;7.50;;;4.55;;
39410;SDS011;26579;43.238;23.124;2022-10-16T00:54:03;8.68;;;5.68;;
39410;SDS011;26579;43.238;23.124;2022-10-16T00:56:31;9.63;;;4.70;;
39410;SDS011;26579;43.238;23.124;2022-10-16T00:58:58;10.65;;;5.80;;
39410;SDS011;26579;43.238;23.124;2022-10-16T01:01:26;7.43;;;4.72;;
39410;SDS011;26579;43.238;23.124;2022-10-16T01:03:52;8.82;;;3.85;;
39410;SDS011;26579;43.238;23.124;2022-10-16T01:06:22;9.00;;;3.60;;
39410;SDS011;26579;43.238;23.124;2022-10-16T01:12:12;6.78;;;3.85;;
39410;SDS011;26579;43.238;23.124;2022-10-16T01:14:45;7.25;;;4.03;;
39410;SDS011;26579;43.238;23.124;2022-10-16T01:17:19;6.55;;;4.10;;
39410;SDS011;26579;43.238;23.124;2022-10-16T01:28:58;9.65;;;5.28;;
39410;SDS011;26579;43.238;23.124;2022-10-16T01:31:27;8.10;;;4.43;;
39410;SDS011;26579;43.238;23.124;2022-10-16T01:34:00;8.13;;;4.80;;
39410;SDS011;26579;43.238;23.124;2022-10-16T01:36:50;11.75;;;4.90;;
39410;SDS011;26579;43.238;23.124;2022-10-16T01:39:19;13.00;;;5.28;;
39410;SDS011;26579;43.238;23.124;2022-10-16T01:41:54;8.05;;;4.55;;
39410;SDS011;26579;43.238;23.124;2022-10-16T01:44:28;8.05;;;3.95;;
39410;SDS011;26579;43.238;23.124;2022-10-16T01:46:55;11.95;;;5.40;;
39410;SDS011;26579;43.238;23.124;2022-10-16T01:49:23;7.63;;;4.55;;
39410;SDS011;26579;43.238;23.124;2022-10-16T01:51:52;6.35;;;4.20;;
39410;SDS011;26579;43.238;23.124;2022-10-16T01:54:22;8.95;;;4.45;;
39410;SDS011;26579;43.238;23.124;2022-10-16T01:56:51;7.68;;;4.22;;
39410;SDS011;26579;43.238;23.124;2022-10-16T01:59:18;9.88;;;4.30;;
39410;SDS011;26579;43.238;23.124;2022-10-16T02:01:47;8.13;;;4.13;;
39410;SDS011;26579;43.238;23.124;2022-10-16T02:04:36;9.57;;;4.55;;
39410;SDS011;26579;43.238;23.124;2022-10-16T02:07:10;6.90;;;3.58;;
39410;SDS011;26579;43.238;23.124;2022-10-16T02:09:37;8.93;;;5.22;;
39410;SDS011;26579;43.238;23.124;2022-10-16T02:12:14;6.95;;;4.40;;
39410;SDS011;26579;43.238;23.124;2022-10-16T02:14:44;7.80;;;4.40;;
39410;SDS011;26579;43.238;23.124;2022-10-16T02:17:14;6.38;;;4.10;;
39410;SDS011;26579;43.238;23.124;2022-10-16T02:19:42;8.25;;;5.13;;
39410;SDS011;26579;43.238;23.124;2022-10-16T02:22:10;6.15;;;4.18;;
39410;SDS011;26579;43.238;23.124;2022-10-16T02:24:49;9.52;;;4.97;;
39410;SDS011;26579;43.238;23.124;2022-10-16T02:30:02;11.63;;;5.25;;
39410;SDS011;26579;43.238;23.124;2022-10-16T02:32:42;7.57;;;4.18;;
39410;SDS011;26579;43.238;23.124;2022-10-16T02:35:10;5.93;;;3.83;;
39410;SDS011;26579;43.238;23.124;2022-10-16T02:37:37;9.80;;;4.22;;
39410;SDS011;26579;43.238;23.124;2022-10-16T02:40:05;6.43;;;4.05;;
39410;SDS011;26579;43.238;23.124;2022-10-16T02:42:33;8.45;;;4.10;;
39410;SDS011;26579;43.238;23.124;2022-10-16T02:45:04;9.05;;;4.65;;
39410;SDS011;26579;43.238;23.124;2022-10-16T02:47:31;9.75;;;4.28;;
39410;SDS011;26579;43.238;23.124;2022-10-16T02:49:57;9.52;;;4.15;;
39410;SDS011;26579;43.238;23.124;2022-10-16T02:52:23;7.93;;;4.53;;
39410;SDS011;26579;43.238;23.124;2022-10-16T02:54:48;6.20;;;3.90;;
39410;SDS011;26579;43.238;23.124;2022-10-16T02:57:14;7.00;;;4.15;;
39410;SDS011;26579;43.238;23.124;2022-10-16T02:59:40;7.10;;;3.92;;
39410;SDS011;26579;43.238;23.124;2022-10-16T03:02:05;6.50;;;3.67;;
39410;SDS011;26579;43.238;23.124;2022-10-16T03:04:31;9.02;;;4.07;;
39410;SDS011;26579;43.238;23.124;2022-10-16T03:06:57;7.75;;;3.92;;
39410;SDS011;26579;43.238;23.124;2022-10-16T03:09:22;8.00;;;4.00;;
39410;SDS011;26579;43.238;23.124;2022-10-16T03:11:48;6.50;;;3.90;;
39410;SDS011;26579;43.238;23.124;2022-10-16T03:14:14;9.25;;;3.80;;
39410;SDS011;26579;43.238;23.124;2022-10-16T03:16:39;7.47;;;3.95;;
39410;SDS011;26579;43.238;23.124;2022-10-16T03:19:05;8.73;;;3.65;;
39410;SDS011;26579;43.238;23.124;2022-10-16T03:21:31;8.85;;;4.15;;
39410;SDS011;26579;43.238;23.124;2022-10-16T03:23:56;8.75;;;4.53;;
39410;SDS011;26579;43.238;23.124;2022-10-16T03:26:22;12.75;;;6.22;;
39410;SDS011;26579;43.238;23.124;2022-10-16T03:28:48;11.23;;;5.65;;
39410;SDS011;26579;43.238;23.124;2022-10-16T03:31:13;9.63;;;5.03;;
39410;SDS011;26579;43.238;23.124;2022-10-16T03:33:39;10.80;;;5.90;;
39410;SDS011;26579;43.238;23.124;2022-10-16T03:36:05;11.77;;;5.95;;
39410;SDS011;26579;43.238;23.124;2022-10-16T03:38:30;9.35;;;4.90;;
39410;SDS011;26579;43.238;23.124;2022-10-16T03:40:56;9.43;;;4.47;;
39410;SDS011;26579;43.238;23.124;2022-10-16T03:43:22;8.18;;;4.57;;
39410;SDS011;26579;43.238;23.124;2022-10-16T03:45:47;10.68;;;4.70;;
39410;SDS011;26579;43.238;23.124;2022-10-16T03:48:15;9.13;;;4.32;;
39410;SDS011;26579;43.238;23.124;2022-10-16T03:50:41;8.90;;;4.10;;
39410;SDS011;26579;43.238;23.124;2022-10-16T03:53:07;10.48;;;4.60;;
39410;SDS011;26579;43.238;23.124;2022-10-16T03:55:32;9.40;;;4.63;;
39410;SDS011;26579;43.238;23.124;2022-10-16T03:57:58;10.57;;;4.13;;
39410;SDS011;26579;43.238;23.124;2022-10-16T04:00:24;7.28;;;4.78;;
39410;SDS011;26579;43.238;23.124;2022-10-16T04:02:49;8.43;;;4.75;;
39410;SDS011;26579;43.238;23.124;2022-10-16T04:05:15;8.55;;;5.13;;
39410;SDS011;26579;43.238;23.124;2022-10-16T04:07:40;10.95;;;6.20;;
39410;SDS011;26579;43.238;23.124;2022-10-16T04:10:06;10.73;;;5.57;;
39410;SDS011;26579;43.238;23.124;2022-10-16T04:12:32;12.45;;;5.53;;
39410;SDS011;26579;43.238;23.124;2022-10-16T04:14:58;9.35;;;5.43;;
39410;SDS011;26579;43.238;23.124;2022-10-16T04:17:23;12.10;;;5.25;;
39410;SDS011;26579;43.238;23.124;2022-10-16T04:19:49;8.30;;;4.40;;
39410;SDS011;26579;43.238;23.124;2022-10-16T04:22:15;7.40;;;5.13;;
39410;SDS011;26579;43.238;23.124;2022-10-16T04:24:41;8.45;;;5.05;;
39410;SDS011;26579;43.238;23.124;2022-10-16T04:27:06;12.73;;;4.45;;
39410;SDS011;26579;43.238;23.124;2022-10-16T04:29:32;7.57;;;4.35;;
39410;SDS011;26579;43.238;23.124;2022-10-16T04:31:57;7.93;;;5.10;;
39410;SDS011;26579;43.238;23.124;2022-10-16T04:34:23;9.43;;;4.93;;
39410;SDS011;26579;43.238;23.124;2022-10-16T04:36:49;11.57;;;6.10;;
39410;SDS011;26579;43.238;23.124;2022-10-16T04:39:15;19.13;;;9.23;;
39410;SDS011;26579;43.238;23.124;2022-10-16T04:41:41;13.82;;;6.88;;
39410;SDS011;26579;43.238;23.124;2022-10-16T04:44:07;12.88;;;7.53;;
39410;SDS011;26579;43.238;23.124;2022-10-16T04:46:33;11.73;;;5.97;;
39410;SDS011;26579;43.238;23.124;2022-10-16T04:48:59;9.50;;;5.82;;
39410;SDS011;26579;43.238;23.124;2022-10-16T04:51:25;10.65;;;6.63;;
39410;SDS011;26579;43.238;23.124;2022-10-16T04:53:50;10.07;;;6.38;;
39410;SDS011;26579;43.238;23.124;2022-10-16T04:56:16;9.57;;;6.18;;
39410;SDS011;26579;43.238;23.124;2022-10-16T04:58:42;11.60;;;5.70;;
39410;SDS011;26579;43.238;23.124;2022-10-16T05:01:07;12.35;;;6.32;;
39410;SDS011;26579;43.238;23.124;2022-10-16T05:03:33;11.18;;;5.85;;
39410;SDS011;26579;43.238;23.124;2022-10-16T05:05:59;9.23;;;5.35;;
39410;SDS011;26579;43.238;23.124;2022-10-16T05:08:25;9.95;;;4.32;;
39410;SDS011;26579;43.238;23.124;2022-10-16T05:10:50;10.93;;;5.40;;
39410;SDS011;26579;43.238;23.124;2022-10-16T05:13:16;9.73;;;5.35;;
39410;SDS011;26579;43.238;23.124;2022-10-16T05:15:42;10.07;;;4.85;;
39410;SDS011;26579;43.238;23.124;2022-10-16T05:18:11;10.73;;;5.43;;
39410;SDS011;26579;43.238;23.124;2022-10-16T05:20:37;10.23;;;5.57;;
39410;SDS011;26579;43.238;23.124;2022-10-16T05:23:02;8.27;;;5.25;;
39410;SDS011;26579;43.238;23.124;2022-10-16T05:25:28;8.65;;;4.70;;
39410;SDS011;26579;43.238;23.124;2022-10-16T05:27:54;10.05;;;5.20;;
39410;SDS011;26579;43.238;23.124;2022-10-16T05:30:19;10.38;;;5.90;;
39410;SDS011;26579;43.238;23.124;2022-10-16T05:32:49;11.90;;;6.43;;
39410;SDS011;26579;43.238;23.124;2022-10-16T05:35:16;15.68;;;6.78;;
39410;SDS011;26579;43.238;23.124;2022-10-16T05:37:43;12.23;;;6.15;;
39410;SDS011;26579;43.238;23.124;2022-10-16T05:40:09;11.77;;;6.30;;
39410;SDS011;26579;43.238;23.124;2022-10-16T05:42:36;19.10;;;8.05;;
39410;SDS011;26579;43.238;23.124;2022-10-16T05:45:02;13.50;;;7.60;;
39410;SDS011;26579;43.238;23.124;2022-10-16T05:47:28;10.50;;;6.50;;
39410;SDS011;26579;43.238;23.124;2022-10-16T05:49:53;11.15;;;5.80;;
39410;SDS011;26579;43.238;23.124;2022-10-16T05:52:19;12.70;;;6.55;;
39410;SDS011;26579;43.238;23.124;2022-10-16T05:54:45;9.65;;;5.85;;
39410;SDS011;26579;43.238;23.124;2022-10-16T05:57:11;16.92;;;7.38;;
39410;SDS011;26579;43.238;23.124;2022-10-16T05:59:37;10.20;;;6.00;;
39410;SDS011;26579;43.238;23.124;2022-10-16T06:02:12;13.82;;;6.47;;
39410;SDS011;26579;43.238;23.124;2022-10-16T06:04:38;9.10;;;5.22;;
39410;SDS011;26579;43.238;23.124;2022-10-16T06:07:04;10.02;;;5.22;;
39410;SDS011;26579;43.238;23.124;2022-10-16T06:09:30;11.75;;;6.55;;
39410;SDS011;26579;43.238;23.124;2022-10-16T06:11:56;11.35;;;5.60;;
39410;SDS011;26579;43.238;23.124;2022-10-16T06:14:21;8.38;;;5.55;;
39410;SDS011;26579;43.238;23.124;2022-10-16T06:16:47;10.90;;;6.97;;
39410;SDS011;26579;43.238;23.124;2022-10-16T06:19:13;15.02;;;6.07;;
39410;SDS011;26579;43.238;23.124;2022-10-16T06:21:38;13.40;;;6.30;;
39410;SDS011;26579;43.238;23.124;2022-10-16T06:24:04;9.93;;;5.45;;
39410;SDS011;26579;43.238;23.124;2022-10-16T06:26:30;10.35;;;5.43;;
39410;SDS011;26579;43.238;23.124;2022-10-16T06:28:56;8.88;;;5.45;;
39410;SDS011;26579;43.238;23.124;2022-10-16T06:31:25;9.40;;;5.03;;
39410;SDS011;26579;43.238;23.124;2022-10-16T06:33:51;14.82;;;5.95;;
39410;SDS011;26579;43.238;23.124;2022-10-16T06:36:17;8.88;;;5.88;;
39410;SDS011;26579;43.238;23.124;2022-10-16T06:38:43;9.40;;;5.85;;
39410;SDS011;26579;43.238;23.124;2022-10-16T06:41:13;13.07;;;7.90;;
39410;SDS011;26579;43.238;23.124;2022-10-16T06:43:43;11.27;;;6.03;;
39410;SDS011;26579;43.238;23.124;2022-10-16T06:46:10;10.23;;;6.50;;
39410;SDS011;26579;43.238;23.124;2022-10-16T06:48:36;13.38;;;8.52;;
39410;SDS011;26579;43.238;23.124;2022-10-16T06:51:07;22.73;;;14.65;;
39410;SDS011;26579;43.238;23.124;2022-10-16T06:53:36;13.60;;;8.85;;
39410;SDS011;26579;43.238;23.124;2022-10-16T06:56:10;19.90;;;11.27;;
39410;SDS011;26579;43.238;23.124;2022-10-16T06:58:41;21.83;;;13.38;;
39410;SDS011;26579;43.238;23.124;2022-10-16T07:01:07;19.77;;;11.80;;
39410;SDS011;26579;43.238;23.124;2022-10-16T07:03:35;19.60;;;12.10;;
39410;SDS011;26579;43.238;23.124;2022-10-16T07:06:03;13.63;;;8.82;;
39410;SDS011;26579;43.238;23.124;2022-10-16T07:08:31;16.27;;;8.35;;
39410;SDS011;26579;43.238;23.124;2022-10-16T07:11:01;14.38;;;8.13;;
39410;SDS011;26579;43.238;23.124;2022-10-16T07:13:28;22.10;;;10.13;;
39410;SDS011;26579;43.238;23.124;2022-10-16T07:15:54;15.57;;;9.75;;
39410;SDS011;26579;43.238;23.124;2022-10-16T07:18:20;17.73;;;9.38;;
39410;SDS011;26579;43.238;23.124;2022-10-16T07:20:46;16.30;;;9.07;;
39410;SDS011;26579;43.238;23.124;2022-10-16T07:23:11;13.10;;;7.57;;
39410;SDS011;26579;43.238;23.124;2022-10-16T07:25:37;12.38;;;7.45;;
39410;SDS011;26579;43.238;23.124;2022-10-16T07:28:03;10.43;;;6.88;;
39410;SDS011;26579;43.238;23.124;2022-10-16T07:30:29;8.43;;;5.32;;
39410;SDS011;26579;43.238;23.124;2022-10-16T07:32:54;8.35;;;5.10;;
39410;SDS011;26579;43.238;23.124;2022-10-16T07:35:20;9.73;;;5.22;;
39410;SDS011;26579;43.238;23.124;2022-10-16T07:37:46;12.77;;;5.90;;
39410;SDS011;26579;43.238;23.124;2022-10-16T07:40:12;8.32;;;4.65;;
39410;SDS011;26579;43.238;23.124;2022-10-16T07:42:38;8.35;;;5.00;;
39410;SDS011;26579;43.238;23.124;2022-10-16T07:45:04;10.25;;;5.10;;
39410;SDS011;26579;43.238;23.124;2022-10-16T07:47:30;8.23;;;4.88;;
39410;SDS011;26579;43.238;23.124;2022-10-16T07:49:56;9.30;;;5.00;;
39410;SDS011;26579;43.238;23.124;2022-10-16T07:52:21;7.28;;;4.70;;
39410;SDS011;26579;43.238;23.124;2022-10-16T07:54:47;8.10;;;4.70;;
39410;SDS011;26579;43.238;23.124;2022-10-16T07:57:13;6.18;;;3.90;;
39410;SDS011;26579;43.238;23.124;2022-10-16T07:59:38;11.07;;;6.38;;
39410;SDS011;26579;43.238;23.124;2022-10-16T08:02:04;12.38;;;5.53;;
39410;SDS011;26579;43.238;23.124;2022-10-16T08:04:30;8.40;;;4.35;;
39410;SDS011;26579;43.238;23.124;2022-10-16T08:06:55;8.73;;;5.05;;
39410;SDS011;26579;43.238;23.124;2022-10-16T08:09:21;6.82;;;3.75;;
39410;SDS011;26579;43.238;23.124;2022-10-16T08:11:47;6.97;;;3.85;;
39410;SDS011;26579;43.238;23.124;2022-10-16T08:14:12;5.45;;;3.65;;
39410;SDS011;26579;43.238;23.124;2022-10-16T08:16:38;8.55;;;4.13;;
39410;SDS011;26579;43.238;23.124;2022-10-16T08:19:04;6.47;;;4.35;;
39410;SDS011;26579;43.238;23.124;2022-10-16T08:21:29;7.38;;;4.10;;
39410;SDS011;26579;43.238;23.124;2022-10-16T08:23:55;5.75;;;3.38;;
39410;SDS011;26579;43.238;23.124;2022-10-16T08:26:21;10.20;;;4.70;;
39410;SDS011;26579;43.238;23.124;2022-10-16T08:28:49;8.38;;;4.97;;
39410;SDS011;26579;43.238;23.124;2022-10-16T08:31:15;6.95;;;4.35;;
39410;SDS011;26579;43.238;23.124;2022-10-16T08:33:42;6.57;;;4.00;;
39410;SDS011;26579;43.238;23.124;2022-10-16T08:36:09;9.20;;;3.92;;
39410;SDS011;26579;43.238;23.124;2022-10-16T08:38:36;6.35;;;3.65;;
39410;SDS011;26579;43.238;23.124;2022-10-16T08:49:12;6.97;;;4.30;;
39410;SDS011;26579;43.238;23.124;2022-10-16T08:51:39;5.38;;;3.60;;
39410;SDS011;26579;43.238;23.124;2022-10-16T08:54:06;5.85;;;3.63;;
39410;SDS011;26579;43.238;23.124;2022-10-16T08:56:41;7.45;;;4.63;;
39410;SDS011;26579;43.238;23.124;2022-10-16T08:59:09;5.95;;;3.25;;
39410;SDS011;26579;43.238;23.124;2022-10-16T09:01:46;10.13;;;3.47;;
39410;SDS011;26579;43.238;23.124;2022-10-16T09:12:12;9.35;;;3.78;;
39410;SDS011;26579;43.238;23.124;2022-10-16T09:14:49;6.57;;;2.90;;
39410;SDS011;26579;43.238;23.124;2022-10-16T09:20:48;7.95;;;4.47;;
39410;SDS011;26579;43.238;23.124;2022-10-16T09:23:14;5.03;;;3.42;;
39410;SDS011;26579;43.238;23.124;2022-10-16T09:25:44;4.85;;;3.58;;
39410;SDS011;26579;43.238;23.124;2022-10-16T09:28:11;5.10;;;3.60;;
39410;SDS011;26579;43.238;23.124;2022-10-16T09:30:37;5.38;;;3.42;;
39410;SDS011;26579;43.238;23.124;2022-10-16T09:33:03;6.30;;;3.30;;
39410;SDS011;26579;43.238;23.124;2022-10-16T09:35:35;6.97;;;3.63;;
39410;SDS011;26579;43.238;23.124;2022-10-16T09:38:27;4.95;;;3.67;;
39410;SDS011;26579;43.238;23.124;2022-10-16T09:40:58;6.38;;;3.88;;
39410;SDS011;26579;43.238;23.124;2022-10-16T09:43:34;8.43;;;3.70;;
39410;SDS011;26579;43.238;23.124;2022-10-16T09:46:05;9.23;;;4.25;;
39410;SDS011;26579;43.238;23.124;2022-10-16T09:48:47;5.75;;;3.90;;
39410;SDS011;26579;43.238;23.124;2022-10-16T09:53:57;6.50;;;4.03;;
39410;SDS011;26579;43.238;23.124;2022-10-16T09:56:31;6.88;;;3.55;;
39410;SDS011;26579;43.238;23.124;2022-10-16T09:58:59;7.40;;;3.95;;
39410;SDS011;26579;43.238;23.124;2022-10-16T10:01:29;6.30;;;4.43;;
39410;SDS011;26579;43.238;23.124;2022-10-16T10:04:01;7.60;;;4.45;;
39410;SDS011;26579;43.238;23.124;2022-10-16T10:06:28;5.97;;;3.60;;
39410;SDS011;26579;43.238;23.124;2022-10-16T10:08:58;8.13;;;3.80;;
39410;SDS011;26579;43.238;23.124;2022-10-16T10:14:17;8.07;;;3.78;;
39410;SDS011;26579;43.238;23.124;2022-10-16T10:19:29;6.82;;;3.63;;
39410;SDS011;26579;43.238;23.124;2022-10-16T10:22:11;5.18;;;3.40;;
39410;SDS011;26579;43.238;23.124;2022-10-16T10:25:00;5.38;;;3.30;;
39410;SDS011;26579;43.238;23.124;2022-10-16T10:35:41;7.22;;;3.97;;
39410;SDS011;26579;43.238;23.124;2022-10-16T10:40:55;9.85;;;7.63;;
39410;SDS011;26579;43.238;23.124;2022-10-16T10:46:11;5.93;;;3.65;;
39410;SDS011;26579;43.238;23.124;2022-10-16T10:51:13;6.60;;;3.97;;
39410;SDS011;26579;43.238;23.124;2022-10-16T10:57:01;8.30;;;3.75;;
39410;SDS011;26579;43.238;23.124;2022-10-16T11:07:52;6.20;;;3.50;;
39410;SDS011;26579;43.238;23.124;2022-10-16T11:10:28;4.80;;;3.38;;
39410;SDS011;26579;43.238;23.124;2022-10-16T11:13:11;5.03;;;3.70;;
39410;SDS011;26579;43.238;23.124;2022-10-16T11:15:45;8.75;;;4.07;;
39410;SDS011;26579;43.238;23.124;2022-10-16T11:18:21;7.07;;;3.85;;
39410;SDS011;26579;43.238;23.124;2022-10-16T11:21:07;6.10;;;4.82;;
39410;SDS011;26579;43.238;23.124;2022-10-16T11:26:34;6.30;;;4.63;;
39410;SDS011;26579;43.238;23.124;2022-10-16T11:29:05;6.20;;;3.72;;
39410;SDS011;26579;43.238;23.124;2022-10-16T11:31:48;10.25;;;4.20;;
39410;SDS011;26579;43.238;23.124;2022-10-16T11:36:57;6.30;;;3.50;;
39410;SDS011;26579;43.238;23.124;2022-10-16T11:39:29;5.47;;;3.42;;
39410;SDS011;26579;43.238;23.124;2022-10-16T11:49:57;6.95;;;3.92;;
39410;SDS011;26579;43.238;23.124;2022-10-16T11:53:16;8.38;;;3.55;;
39410;SDS011;26579;43.238;23.124;2022-10-16T11:55:24;5.22;;;4.20;;
39410;SDS011;26579;43.238;23.124;2022-10-16T11:57:57;8.73;;;4.10;;
39410;SDS011;26579;43.238;23.124;2022-10-16T12:00:40;7.22;;;3.63;;
39410;SDS011;26579;43.238;23.124;2022-10-16T12:03:24;7.18;;;3.80;;
39410;SDS011;26579;43.238;23.124;2022-10-16T12:08:50;5.43;;;3.45;;
39410;SDS011;26579;43.238;23.124;2022-10-16T12:11:31;8.88;;;4.78;;
39410;SDS011;26579;43.238;23.124;2022-10-16T12:14:07;9.30;;;4.43;;
39410;SDS011;26579;43.238;23.124;2022-10-16T12:16:50;6.43;;;4.13;;
39410;SDS011;26579;43.238;23.124;2022-10-16T12:19:58;6.22;;;3.50;;
39410;SDS011;26579;43.238;23.124;2022-10-16T12:22:26;6.95;;;4.15;;
39410;SDS011;26579;43.238;23.124;2022-10-16T12:24:57;6.22;;;3.88;;
39410;SDS011;26579;43.238;23.124;2022-10-16T12:27:30;6.78;;;3.22;;
39410;SDS011;26579;43.238;23.124;2022-10-16T12:29:58;7.57;;;3.72;;
39410;SDS011;26579;43.238;23.124;2022-10-16T12:32:33;6.47;;;3.80;;
39410;SDS011;26579;43.238;23.124;2022-10-16T12:34:59;9.57;;;3.85;;
39410;SDS011;26579;43.238;23.124;2022-10-16T12:40:10;7.30;;;4.32;;
39410;SDS011;26579;43.238;23.124;2022-10-16T12:42:54;10.18;;;3.90;;
39410;SDS011;26579;43.238;23.124;2022-10-16T12:45:33;9.23;;;5.18;;
39410;SDS011;26579;43.238;23.124;2022-10-16T12:48:01;7.13;;;5.03;;
39410;SDS011;26579;43.238;23.124;2022-10-16T12:50:42;6.13;;;4.00;;
39410;SDS011;26579;43.238;23.124;2022-10-16T12:53:19;7.07;;;4.30;;
39410;SDS011;26579;43.238;23.124;2022-10-16T13:04:42;9.32;;;4.07;;
39410;SDS011;26579;43.238;23.124;2022-10-16T13:07:17;6.13;;;4.10;;
39410;SDS011;26579;43.238;23.124;2022-10-16T13:18:24;7.95;;;3.95;;
39410;SDS011;26579;43.238;23.124;2022-10-16T13:23:34;6.60;;;4.00;;
39410;SDS011;26579;43.238;23.124;2022-10-16T13:28:30;5.00;;;3.63;;
39410;SDS011;26579;43.238;23.124;2022-10-16T13:30:59;9.25;;;4.60;;
39410;SDS011;26579;43.238;23.124;2022-10-16T13:33:41;5.90;;;4.30;;
39410;SDS011;26579;43.238;23.124;2022-10-16T13:36:24;6.93;;;3.60;;
39410;SDS011;26579;43.238;23.124;2022-10-16T13:39:01;7.18;;;4.05;;
39410;SDS011;26579;43.238;23.124;2022-10-16T13:41:38;7.07;;;4.03;;
39410;SDS011;26579;43.238;23.124;2022-10-16T13:44:04;5.65;;;3.50;;
39410;SDS011;26579;43.238;23.124;2022-10-16T13:46:34;9.95;;;3.90;;
39410;SDS011;26579;43.238;23.124;2022-10-16T13:49:01;6.40;;;3.50;;
39410;SDS011;26579;43.238;23.124;2022-10-16T13:51:29;9.50;;;4.43;;
39410;SDS011;26579;43.238;23.124;2022-10-16T13:53:56;10.13;;;4.05;;
39410;SDS011;26579;43.238;23.124;2022-10-16T13:56:27;6.93;;;4.20;;
39410;SDS011;26579;43.238;23.124;2022-10-16T13:59:01;8.13;;;4.15;;
39410;SDS011;26579;43.238;23.124;2022-10-16T14:01:33;8.98;;;4.22;;
39410;SDS011;26579;43.238;23.124;2022-10-16T14:04:10;7.80;;;3.85;;
39410;SDS011;26579;43.238;23.124;2022-10-16T14:06:43;8.38;;;4.78;;
39410;SDS011;26579;43.238;23.124;2022-10-16T14:11:56;10.27;;;4.88;;
39410;SDS011;26579;43.238;23.124;2022-10-16T14:14:26;9.60;;;4.15;;
39410;SDS011;26579;43.238;23.124;2022-10-16T14:17:00;11.77;;;4.53;;
39410;SDS011;26579;43.238;23.124;2022-10-16T14:19:26;10.63;;;5.20;;
39410;SDS011;26579;43.238;23.124;2022-10-16T14:21:54;10.13;;;4.47;;
39410;SDS011;26579;43.238;23.124;2022-10-16T14:24:24;7.75;;;4.40;;
39410;SDS011;26579;43.238;23.124;2022-10-16T14:26:56;6.50;;;3.80;;
39410;SDS011;26579;43.238;23.124;2022-10-16T14:29:22;11.48;;;4.45;;
39410;SDS011;26579;43.238;23.124;2022-10-16T14:31:57;8.57;;;5.10;;
39410;SDS011;26579;43.238;23.124;2022-10-16T14:34:28;7.90;;;4.25;;
39410;SDS011;26579;43.238;23.124;2022-10-16T14:36:59;11.25;;;4.63;;
39410;SDS011;26579;43.238;23.124;2022-10-16T14:39:30;7.40;;;4.45;;
39410;SDS011;26579;43.238;23.124;2022-10-16T14:41:56;8.80;;;5.57;;
39410;SDS011;26579;43.238;23.124;2022-10-16T14:44:26;8.43;;;5.30;;
39410;SDS011;26579;43.238;23.124;2022-10-16T14:47:06;18.05;;;8.95;;
39410;SDS011;26579;43.238;23.124;2022-10-16T14:49:34;15.38;;;7.78;;
39410;SDS011;26579;43.238;23.124;2022-10-16T14:52:00;17.35;;;8.13;;
39410;SDS011;26579;43.238;23.124;2022-10-16T14:54:26;19.63;;;8.75;;
39410;SDS011;26579;43.238;23.124;2022-10-16T14:56:56;17.13;;;10.45;;
39410;SDS011;26579;43.238;23.124;2022-10-16T14:59:30;17.60;;;11.60;;
39410;SDS011;26579;43.238;23.124;2022-10-16T15:01:57;17.50;;;10.85;;
39410;SDS011;26579;43.238;23.124;2022-10-16T15:04:23;20.05;;;12.05;;
39410;SDS011;26579;43.238;23.124;2022-10-16T15:06:49;15.15;;;10.75;;
39410;SDS011;26579;43.238;23.124;2022-10-16T15:09:14;24.20;;;11.00;;
39410;SDS011;26579;43.238;23.124;2022-10-16T15:11:41;28.27;;;12.30;;
39410;SDS011;26579;43.238;23.124;2022-10-16T15:14:09;15.68;;;9.77;;
39410;SDS011;26579;43.238;23.124;2022-10-16T15:16:37;26.65;;;13.73;;
39410;SDS011;26579;43.238;23.124;2022-10-16T15:19:03;21.25;;;12.30;;
39410;SDS011;26579;43.238;23.124;2022-10-16T15:21:30;26.35;;;15.57;;
39410;SDS011;26579;43.238;23.124;2022-10-16T15:23:58;28.23;;;17.42;;
39410;SDS011;26579;43.238;23.124;2022-10-16T15:26:24;22.25;;;14.10;;
39410;SDS011;26579;43.238;23.124;2022-10-16T15:28:51;19.73;;;12.88;;
39410;SDS011;26579;43.238;23.124;2022-10-16T15:31:17;39.17;;;23.88;;
39410;SDS011;26579;43.238;23.124;2022-10-16T15:33:43;27.45;;;14.82;;
39410;SDS011;26579;43.238;23.124;2022-10-16T15:36:09;26.92;;;16.20;;
39410;SDS011;26579;43.238;23.124;2022-10-16T15:38:35;17.95;;;13.32;;
39410;SDS011;26579;43.238;23.124;2022-10-16T15:41:01;19.88;;;12.80;;
39410;SDS011;26579;43.238;23.124;2022-10-16T15:43:26;27.25;;;17.23;;
39410;SDS011;26579;43.238;23.124;2022-10-16T15:45:59;31.65;;;16.50;;
39410;SDS011;26579;43.238;23.124;2022-10-16T15:48:30;27.85;;;17.50;;
39410;SDS011;26579;43.238;23.124;2022-10-16T15:50:55;26.70;;;15.45;;
39410;SDS011;26579;43.238;23.124;2022-10-16T15:53:21;29.15;;;17.25;;
39410;SDS011;26579;43.238;23.124;2022-10-16T15:55:47;33.08;;;15.55;;
39410;SDS011;26579;43.238;23.124;2022-10-16T15:58:13;31.98;;;15.65;;
39410;SDS011;26579;43.238;23.124;2022-10-16T16:00:39;41.35;;;23.73;;
39410;SDS011;26579;43.238;23.124;2022-10-16T16:03:04;31.40;;;18.85;;
39410;SDS011;26579;43.238;23.124;2022-10-16T16:05:30;32.67;;;17.27;;
39410;SDS011;26579;43.238;23.124;2022-10-16T16:07:56;30.90;;;19.00;;
39410;SDS011;26579;43.238;23.124;2022-10-16T16:10:22;44.20;;;19.55;;
39410;SDS011;26579;43.238;23.124;2022-10-16T16:12:48;46.33;;;27.15;;
39410;SDS011;26579;43.238;23.124;2022-10-16T16:15:14;38.08;;;24.20;;
39410;SDS011;26579;43.238;23.124;2022-10-16T16:17:40;31.80;;;19.02;;
39410;SDS011;26579;43.238;23.124;2022-10-16T16:20:06;28.02;;;17.27;;
39410;SDS011;26579;43.238;23.124;2022-10-16T16:22:32;23.67;;;15.82;;
39410;SDS011;26579;43.238;23.124;2022-10-16T16:24:58;25.70;;;14.68;;
39410;SDS011;26579;43.238;23.124;2022-10-16T16:27:24;20.45;;;13.73;;
39410;SDS011;26579;43.238;23.124;2022-10-16T16:29:49;20.02;;;12.75;;
39410;SDS011;26579;43.238;23.124;2022-10-16T16:32:15;54.00;;;28.65;;
39410;SDS011;26579;43.238;23.124;2022-10-16T16:34:41;20.63;;;12.68;;
39410;SDS011;26579;43.238;23.124;2022-10-16T16:37:07;21.17;;;12.52;;
39410;SDS011;26579;43.238;23.124;2022-10-16T16:39:33;23.48;;;14.65;;